METAR stanice u blizini

 

LYNI - Nis, Yugoslavia
Distance from station: JZ 40km
Ažurirano: 03/04/2020 00:00
Vedro
Vedro
 Pravac vetra I
Vetar: I 7 km/h
Temperatura: 1°C
Osećaj hladnoće: -2°C
Tačka rose: -1°C
Vlažnost: 87%
Pritisak: 1015 hPa
Pregled: Vedro
Vidljivost: greater than 10 km
2020/04/02 22:00 LYNI 022200Z 08004KT CAVOK 01/M01 Q1015 NOSIG
LYKV - Kraljevo, Yugoslavia
Distance from station: ZSZ 136km
Ažurirano: 03/04/2020 00:00
Vedro
Vedro
 Pravac vetra varies
Vetar: varies 4 km/h
Temperatura: -1°C
Tačka rose: -1°C
Vlažnost: 100%
Pritisak: 1013 hPa
Pregled: Vedro
Vidljivost: greater than 10 km
2020/04/02 22:00 LYKV 022200Z VRB02KT CAVOK M01/M01 Q1013 NOSIG
LBSF - Sofia (observato, Bulgaria
Distance from station: JI 138km
Ažurirano: 03/04/2020 00:00
Mist, Delimično oblačno
Mist, Delimično oblačno
 Pravac vetra varies
Vetar: varies 2 km/h
Temperatura: -2°C
Tačka rose: -3°C
Vlažnost: 93%
Pritisak: 1015 hPa
Pregled: Mist
Oblaci: Delimično oblačno
Vidljivost: 5 km
2020/04/02 22:00 LBSF 022200Z VRB01KT 5000 BR NSC M02/M03 Q1015 R99/29//95 TEMPO 3000 BR
 
BKPR - Prishtina, Yugoslavia
Distance from station: JZ 147km
Ažurirano: 03/04/2020 00:30
Vedro
Vedro
 Pravac vetra varies
Vetar: varies 2 km/h
Temperatura: -1°C
Tačka rose: -4°C
Vlažnost: 80%
Pritisak: 1014 hPa
Pregled: Vedro
Vidljivost: greater than 10 km
2020/04/02 22:30 BKPR 022230Z VRB01KT CAVOK M01/M04 Q1014 NOSIG RMK 17190095
LRCV - Craiova, Romania
Distance from station: SI 154km
Ažurirano: 03/04/2020 00:00
Vedro
Vedro
 Pravac vetra SSZ
Vetar: SSZ 7 km/h
Temperatura: 0°C
Osećaj hladnoće: -3°C
Tačka rose: -1°C
Vlažnost: 93%
Pritisak: 1015 hPa
Pregled: Vedro
Vidljivost: greater than 10 km
2020/04/02 22:00 LRCV 022200Z 33004KT CAVOK 00/M01 Q1015
LWSK - Skopje/Petrovac, Macedonia
Distance from station: JJZ 185km
Ažurirano: 03/04/2020 00:00
Vedro
Vedro
 Pravac vetra I
Vetar: I 4 km/h
Temperatura: -1°C
Tačka rose: -2°C
Vlažnost: 93%
Pritisak: 1016 hPa
Pregled: Vedro
Vidljivost: greater than 10 km
2020/04/02 22:00 LWSK 022200Z 08002KT CAVOK M01/M02 Q1016 NOSIG
 
LYVR - Vrsac, Yugoslavia
Distance from station: SSZ 189km
Ažurirano: 03/04/2020 00:00
Vedro
Vedro
 Pravac vetra JI
Vetar: JI 31 km/h
Temperatura: 7°C
Osećaj hladnoće: 3°C
Tačka rose: -6°C
Vlažnost: 39%
Pritisak: 1013 hPa
Pregled: Vedro
Vidljivost: greater than 10 km
2020/04/02 22:00 LYVR 022200Z AUTO 13017KT CAVOK 07/M06 Q1013
LYUZ - Uzice-Ponikve, Yugoslavia
Distance from station: Z 207km
Ažurirano: 03/04/2020 00:00
Vedro
Vedro
 Pravac vetra varies
Vetar: varies 2 km/h
Temperatura: 0°C
Tačka rose: -3°C
Vlažnost: 80%
Pritisak: 1011 hPa
Pregled: Vedro
Vidljivost: greater than 10 km
2020/04/02 22:00 LYUZ 022200Z AUTO VRB01KT CAVOK M00/M03 Q1011
LYBE - Belgrade/Surcin, Yugoslavia
Distance from station: SZ 209km
Ažurirano: 03/04/2020 00:00
Vedro
Vedro
 Pravac vetra IJI
Vetar: IJI 13 km/h
Temperatura: 2°C
Osećaj hladnoće: -1°C
Tačka rose: -1°C
Vlažnost: 81%
Pritisak: 1013 hPa
Pregled: Vedro
Vidljivost: greater than 10 km
2020/04/02 22:00 LYBE 022200Z 11007KT CAVOK 02/M01 Q1013 NOSIG
 
LYBT - Batajnica, Yugoslavia
Distance from station: SZ 219km
Ažurirano: 03/04/2020 00:00
Vedro
Vedro
 Pravac vetra ISI
Vetar: ISI 7 km/h
Temperatura: 4°C
Osećaj hladnoće: 2°C
Tačka rose: -4°C
Vlažnost: 56%
Pritisak: 1012 hPa
Pregled: Vedro
Vidljivost: greater than 10 km
2020/04/02 22:00 LYBT 022200Z 07004KT CAVOK 04/M04 Q1012 NOSIG
LRTR - Timisoara/Giarma, Romania
Distance from station: SSZ 260km
Ažurirano: 03/04/2020 00:00
Vedro
Vedro
 Pravac vetra SI
Vetar: SI 9 km/h
Temperatura: -1°C
Osećaj hladnoće: -4°C
Tačka rose: -3°C
Vlažnost: 86%
Pritisak: 1013 hPa
Pregled: Vedro
Vidljivost: greater than 10 km
2020/04/02 22:00 LRTR 022200Z 05005KT CAVOK M01/M03 Q1013
LBPD - Plovdiv, Bulgaria
Distance from station: JI 263km
Ažurirano: 03/04/2020 00:00
Oblačno
Oblačno
 Pravac vetra JJZ
Vetar: JJZ 6 km/h
Temperatura: 4°C
Tačka rose: 2°C
Vlažnost: 87%
Pritisak: 1016 hPa
Oblaci: Oblačno
Vidljivost: 10 km
Cloud details: Delimično oblačno 1554 m
Oblačno 1920 m
2020/04/02 22:00 LBPD 022200Z AUTO 21003KT 9999 SCT051 OVC063 04/02 Q1016
 
LYPG - Podgorica(Titogr, Yugoslavia
Distance from station: ZJZ 278km
Ažurirano: 03/04/2020 00:00
Vedro
Vedro
 Pravac vetra S
Vetar: S 4 km/h
Temperatura: 5°C
Tačka rose: 1°C
Vlažnost: 76%
Pritisak: 1014 hPa
Pregled: Vedro
Vidljivost: greater than 10 km
2020/04/02 22:00 LYPG 022200Z 36002KT CAVOK 05/01 Q1014 NOSIG
LBGO - Gorna Orechovist, Bulgaria
Distance from station: I 285km
Ažurirano: 03/04/2020 00:00
Vedro
Vedro
 Pravac vetra JI
Vetar: JI 6 km/h
Temperatura: -2°C
Tačka rose: -2°C
Vlažnost: 100%
Pritisak: 1016 hPa
Oblaci: Vedro
Vidljivost: 9 km
2020/04/02 22:00 LBGO 022200Z AUTO 13003KT 9000 NCD M02/M02 Q1016
LRSB - Sibiu/Turnisor, Romania
Distance from station: SSI 286km
Ažurirano: 03/04/2020 00:00
Vedro
Vedro
 Pravac vetra JJI
Vetar: JJI 4 km/h
Temperatura: 0°C
Tačka rose: -3°C
Vlažnost: 80%
Pritisak: 1013 hPa
Pregled: Vedro
Vidljivost: greater than 10 km
2020/04/02 22:00 LRSB 022200Z 16002KT CAVOK 00/M03 Q1013
 
LWOH - Ohrid, Macedonia
Distance from station: JJZ 292km
Ažurirano: 02/04/2020 17:00
NOT Current
Few Clouds
Few Clouds
 Pravac vetra JJI
Vetar: JJI 7 km/h
Temperatura: 6°C
Osećaj hladnoće: 4°C
Tačka rose: 0°C
Vlažnost: 66%
Pritisak: 1012 hPa
Oblaci: Few Clouds
Vidljivost: 10 km
Cloud details: Few Clouds 1219 m
2020/04/02 15:00 LWOH 021500Z 16004KT 9999 FEW040 06/M00 Q1012
LQTZ - Tuzla, Yugoslavia
Distance from station: ZSZ 298km
Ažurirano: 02/04/2020 15:00
NOT Current
Vedro
Vedro
 Pravac vetra I
Vetar: I 11 km/h
Temperatura: 12°C
Tačka rose: -2°C
Vlažnost: 38%
Pritisak: 1012 hPa
Pregled: Vedro
Vidljivost: greater than 10 km
2020/04/02 13:00 LQTZ 021300Z 08006KT 010V130 CAVOK 12/M02 Q1012
LRAR - Arad, Romania
Distance from station: SSZ 301km
Ažurirano: 03/04/2020 00:00
Vedro
Vedro
 Pravac vetra calm
Vetar: Tišina
Temperatura: 0°C
Tačka rose: -4°C
Vlažnost: 75%
Pritisak: 1013 hPa
Pregled: Vedro
Vidljivost: greater than 10 km
2020/04/02 22:00 LRAR 022200Z 00000KT CAVOK 00/M04 Q1013
 
LYTV - Tivat, Yugoslavia
Distance from station: ZJZ 315km
Ažurirano: 03/04/2020 00:00
Vedro
Vedro
 Pravac vetra varies
Vetar: varies 2 km/h
Temperatura: 1°C
Tačka rose: -1°C
Vlažnost: 87%
Pritisak: 1013 hPa
Pregled: Vedro
Vidljivost: greater than 10 km
2020/04/02 22:00 LYTV 022200Z VRB01KT CAVOK 01/M01 Q1013
LATI - Tirana, Albania
Distance from station: JZ 316km
Ažurirano: 03/04/2020 00:20
Vedro
Vedro
 Pravac vetra varies
Vetar: varies 4 km/h
Temperatura: 4°C
Tačka rose: 2°C
Vlažnost: 87%
Pritisak: 1014 hPa
Pregled: Vedro
Vidljivost: greater than 10 km
2020/04/02 22:20 LATI 022220Z VRB02KT CAVOK 04/02 Q1014 NOSIG
LQBK - Banja Luka, Yugoslavia
Distance from station: SZ 426km
Ažurirano: 03/04/2020 00:00
Vedro
Vedro
 Pravac vetra varies
Vetar: varies 4 km/h
Temperatura: 1°C
Tačka rose: -1°C
Vlažnost: 87%
Pritisak: 1013 hPa
Pregled: Vedro
Vidljivost: greater than 10 km
2020/04/02 22:00 LQBK 022200Z VRB02KT CAVOK 01/M01 Q1013 NOSIG
 
LDOS - Osijek, Croatia
Distance from station: SSZ 360km
Ažurirano: 03/04/2020 00:00
Vedro
Vedro
 Pravac vetra ISI
Vetar: ISI 11 km/h
Temperatura: 1°C
Osećaj hladnoće: -2°C
Tačka rose: -3°C
Vlažnost: 75%
Pritisak: 1012 hPa
Pregled: Vedro
Vidljivost: greater than 10 km
2020/04/02 22:00 LDOS 022200Z 07006KT CAVOK 01/M03 Q1012
LDDU - Dubrovnik-Cilipi, Croatia
Distance from station: JZ 352km
Ažurirano: 03/04/2020 00:00
Vedro
Vedro
 Pravac vetra ISI
Vetar: ISI 6 km/h
Temperatura: 7°C
Tačka rose: -1°C
Vlažnost: 57%
Pritisak: 1013 hPa
Pregled: Vedro
Vidljivost: greater than 10 km
2020/04/02 22:00 LDDU 022200Z 06003KT 350V150 CAVOK 07/M01 Q1013
LQMO - Mostar Airport, Bosnia-Herzegovina
Distance from station: Z 359km
Ažurirano: 28/03/2020 11:30
NOT Current
Few Clouds
Few Clouds
 Pravac vetra JI
Vetar: JI 11 km/h
Temperatura: 17°C
Tačka rose: 3°C
Vlažnost: 39%
Pritisak: 1011 hPa
Oblaci: Few Clouds
Vidljivost: 10 km
Cloud details: Few Clouds 1524 m
2020/03/28 10:30 LQMO 281030Z 13006KT 100V160 9999 FEW050 17/03 Q1011
 
LQSA - Sarajevo/Butmir, Yugoslavia
Distance from station: Z 311km
Ažurirano: 02/04/2020 16:00
NOT Current
Few Clouds
Few Clouds
 Pravac vetra varies
Vetar: varies 4 km/h
Temperatura: 12°C
Tačka rose: -1°C
Vlažnost: 41%
Pritisak: 1011 hPa
Oblaci: Few Clouds
Vidljivost: 10 km
Cloud details: Few Clouds 1219 m
2020/04/02 14:00 LQSA 021400Z VRB02KT 9999 FEW040 12/M01 Q1011 NOSIG
LDSP - Split/Kastel Sta, Croatia
Distance from station: Z 468km
Ažurirano: 03/04/2020 00:00
Vedro
Vedro
 Pravac vetra SSZ
Vetar: SSZ 6 km/h
Temperatura: 6°C
Tačka rose: -2°C
Vlažnost: 57%
Pritisak: 1014 hPa
Pregled: Vedro
Vidljivost: greater than 10 km
2020/04/02 22:00 LDSP 022200Z AUTO 33003KT 290V070 CAVOK 06/M02 Q1014
LDZD - Zadar/Zemunik, Croatia
Distance from station: ZSZ 567km
Ažurirano: 03/04/2020 00:00
Vedro
Vedro
 Pravac vetra I
Vetar: I 6 km/h
Temperatura: 0°C
Tačka rose: -3°C
Vlažnost: 80%
Pritisak: 1014 hPa
Pregled: Vedro
Vidljivost: greater than 10 km
2020/04/02 22:00 LDZD 022200Z 10003KT CAVOK 00/M03 Q1014
 
LDZA - Zagreb/Pleso, Croatia
Distance from station: SZ 555km
Ažurirano: 03/04/2020 00:00
Vedro
Vedro
 Pravac vetra ZJZ
Vetar: ZJZ 2 km/h
Temperatura: 0°C
Tačka rose: -4°C
Vlažnost: 75%
Pritisak: 1012 hPa
Pregled: Vedro
Vidljivost: greater than 10 km
2020/04/02 22:00 LDZA 022200Z 25001KT CAVOK 00/M04 Q1012 NOSIG
LJCE - Cerklje, Slovenia
Distance from station: SZ 680km
Ažurirano: 03/04/2020 00:00
Vedro
Vedro
 Pravac vetra ZJZ
Vetar: ZJZ 2 km/h
Temperatura: -1°C
Tačka rose: -5°C
Vlažnost: 75%
Pritisak: 1012 hPa
Oblaci: Vedro
Vidljivost: 10 km
2020/04/02 22:00 LJCE 022200Z AUTO 24001KT 9999 NCD M01/M05 Q1012
LJMB - Maribor, Slovenia
Distance from station: SZ 616km
Ažurirano: 03/04/2020 00:00
Vedro
Vedro
 Pravac vetra varies
Vetar: varies 2 km/h
Temperatura: 1°C
Tačka rose: -6°C
Vlažnost: 60%
Pritisak: 1011 hPa
Oblaci: Vedro
Vidljivost: 10 km
2020/04/02 22:00 LJMB 022200Z AUTO VRB01KT 9999 NCD 01/M06 Q1011
 
LJLJ - Ljubljana/Brnik, Slovenia
Distance from station: SZ 671km
Ažurirano: 03/04/2020 00:00
Vedro
Vedro
 Pravac vetra ZSZ
Vetar: ZSZ 4 km/h
Temperatura: -2°C
Tačka rose: -5°C
Vlažnost: 80%
Pritisak: 1012 hPa
Pregled: Vedro
Vidljivost: greater than 10 km
2020/04/02 22:00 LJLJ 022200Z 29002KT CAVOK M02/M05 Q1012 NOSIG
LDRI - Rijeka, Croatia
Distance from station: SZ 650km
Ažurirano: 02/04/2020 19:00
NOT Current
Vedro
Vedro
 Pravac vetra varies
Vetar: varies 4 km/h
Temperatura: 11°C
Tačka rose: -3°C
Vlažnost: 38%
Pritisak: 1012 hPa
Pregled: Vedro
Vidljivost: greater than 10 km
2020/04/02 17:00 LDRI 021700Z VRB02KT CAVOK 11/M03 Q1012
LDPL - Pula, Croatia
Distance from station: ZSZ 686km
Ažurirano: 03/04/2020 00:00
Vedro
Vedro
 Pravac vetra ISI
Vetar: ISI 6 km/h
Temperatura: 3°C
Tačka rose: -4°C
Vlažnost: 60%
Pritisak: 1013 hPa
Pregled: Vedro
Vidljivost: greater than 10 km
2020/04/02 22:00 LDPL 022200Z 06003KT 020V090 CAVOK 03/M04 Q1013
 
LJPZ - Portorož, Slovenia
Distance from station: ZSZ 720km
Ažurirano: 03/04/2020 00:00
Vedro
Vedro
 Pravac vetra IJI
Vetar: IJI 17 km/h
Temperatura: 2°C
Osećaj hladnoće: -2°C
Tačka rose: -2°C
Vlažnost: 75%
Pritisak: 1013 hPa
Oblaci: Vedro
Vidljivost: 10 km
2020/04/02 22:00 LJPZ 022200Z AUTO 12009KT 9999 NCD 02/M02 Q1013